createdAt,value
2018-12-17T00:00:19.164Z,27.57
2018-12-17T00:02:54.223Z,24.20
2018-12-17T00:05:22.442Z,24.53
2018-12-17T00:07:51.638Z,24.37
2018-12-17T00:10:21.880Z,24.47
2018-12-17T00:12:52.084Z,24.90
2018-12-17T00:15:20.324Z,27.10
2018-12-17T00:17:48.604Z,24.73
2018-12-17T00:20:16.725Z,23.53
2018-12-17T00:22:45.959Z,23.30
2018-12-17T00:25:14.492Z,24.53
2018-12-17T00:27:42.745Z,24.00
2018-12-17T00:30:10.982Z,23.80
2018-12-17T00:32:39.204Z,23.60
2018-12-17T00:35:07.320Z,23.73
2018-12-17T00:37:38.468Z,25.72
2018-12-17T00:40:06.761Z,24.70
2018-12-17T00:42:35.874Z,24.80
2018-12-17T00:45:06.658Z,24.73
2018-12-17T00:47:34.881Z,25.93
2018-12-17T00:50:03.058Z,25.93
2018-12-17T00:52:35.118Z,23.40
2018-12-17T00:55:06.757Z,24.30
2018-12-17T00:57:35.848Z,25.80
2018-12-17T01:00:05.316Z,23.43
2018-12-17T01:02:33.892Z,25.50
2018-12-17T01:05:01.971Z,23.73
2018-12-17T01:07:35.487Z,24.00
2018-12-17T01:10:04.677Z,23.37
2018-12-17T01:12:39.851Z,23.43
2018-12-17T01:15:10.050Z,22.47
2018-12-17T01:17:38.316Z,23.43
2018-12-17T01:20:06.919Z,23.00
2018-12-17T01:22:35.490Z,22.87
2018-12-17T01:25:15.584Z,23.23
2018-12-17T01:27:44.793Z,23.53
2018-12-17T01:30:12.926Z,22.97
2018-12-17T01:32:43.155Z,22.37
2018-12-17T01:35:18.428Z,23.30
2018-12-17T01:37:48.613Z,23.30
2018-12-17T01:40:35.489Z,23.90
2018-12-17T01:43:03.734Z,22.57
2018-12-17T01:45:31.993Z,21.67
2018-12-17T01:48:15.501Z,22.43
2018-12-17T01:50:43.664Z,22.47
2018-12-17T01:53:11.861Z,21.90
2018-12-17T01:55:40.127Z,25.13
2018-12-17T01:58:09.593Z,24.67
2018-12-17T02:00:37.807Z,29.27
2018-12-17T02:03:07.962Z,32.37
2018-12-17T02:05:43.068Z,31.20
2018-12-17T02:08:19.197Z,29.30
2018-12-17T02:10:51.418Z,25.20
2018-12-17T02:13:19.708Z,26.73
2018-12-17T02:15:47.988Z,27.57
2018-12-17T02:18:17.197Z,27.27
2018-12-17T02:20:46.450Z,24.77
2018-12-17T02:23:14.859Z,23.67
2018-12-17T02:25:43.090Z,22.67
2018-12-17T02:28:12.269Z,23.43
2018-12-17T02:30:41.494Z,24.23
2018-12-17T02:33:09.676Z,24.10
2018-12-17T02:35:37.922Z,23.67
2018-12-17T02:38:08.166Z,25.23
2018-12-17T02:40:37.722Z,23.43
2018-12-17T02:43:05.975Z,24.30
2018-12-17T02:45:34.222Z,24.50
2018-12-17T02:48:05.455Z,22.50
2018-12-17T02:50:33.628Z,27.30
2018-12-17T02:53:01.793Z,23.47
2018-12-17T02:55:29.986Z,23.10
2018-12-17T02:57:58.153Z,24.50
2018-12-17T03:00:27.390Z,26.90
2018-12-17T03:03:01.873Z,25.80
2018-12-17T03:05:34.229Z,27.20
2018-12-17T03:08:02.465Z,28.00
2018-12-17T03:10:32.823Z,27.47
2018-12-17T03:13:01.030Z,27.87
2018-12-17T03:15:36.119Z,25.77
2018-12-17T03:18:09.426Z,23.23
2018-12-17T03:20:39.220Z,25.00
2018-12-17T03:23:08.059Z,24.43
2018-12-17T03:25:36.193Z,23.80
2018-12-17T03:28:11.584Z,23.37
2018-12-17T03:30:42.795Z,27.17
2018-12-17T03:33:12.091Z,23.03
2018-12-17T03:35:40.670Z,24.00
2018-12-17T03:38:08.924Z,23.83
2018-12-17T03:40:37.625Z,24.53
2018-12-17T03:43:06.844Z,25.67
2018-12-17T03:45:35.020Z,24.83
2018-12-17T03:48:05.231Z,24.20
2018-12-17T03:50:35.863Z,24.70
2018-12-17T03:53:04.083Z,24.60
2018-12-17T03:55:33.270Z,23.50
2018-12-17T03:58:03.501Z,24.77
2018-12-17T04:00:31.726Z,23.37
2018-12-17T04:03:02.409Z,22.97
2018-12-17T04:05:36.426Z,22.70
2018-12-17T04:08:05.871Z,21.70
2018-12-17T04:10:34.462Z,23.07
2018-12-17T04:13:02.895Z,21.87
2018-12-17T04:15:31.115Z,23.37
2018-12-17T04:17:59.378Z,23.10
2018-12-17T04:20:27.553Z,23.03
2018-12-17T04:22:56.857Z,23.07
2018-12-17T04:25:25.071Z,22.07
2018-12-17T04:27:53.219Z,23.20
2018-12-17T04:30:22.415Z,24.98
2018-12-17T04:32:57.714Z,22.63
2018-12-17T04:35:33.759Z,22.80
2018-12-17T04:38:08.791Z,21.83
2018-12-17T04:40:37.011Z,23.83
2018-12-17T04:43:07.225Z,24.53
2018-12-17T04:45:42.447Z,30.40
2018-12-17T04:48:10.716Z,26.83
2018-12-17T04:50:40.157Z,27.13
2018-12-17T04:53:10.338Z,29.70
2018-12-17T04:55:39.067Z,28.33
2018-12-17T04:58:08.258Z,28.30
2018-12-17T05:00:36.447Z,31.13
2018-12-17T05:03:04.896Z,31.00
2018-12-17T05:05:40.081Z,34.10
2018-12-17T05:08:15.128Z,32.28
2018-12-17T05:10:43.299Z,30.67
2018-12-17T05:13:11.523Z,30.50
2018-12-17T05:15:41.781Z,29.80
2018-12-17T05:18:10.966Z,31.13
2018-12-17T05:20:43.695Z,33.23
2018-12-17T05:23:18.813Z,32.10
2018-12-17T05:25:51.086Z,34.25
2018-12-17T05:28:19.305Z,35.87
2018-12-17T05:30:47.512Z,36.37
2018-12-17T05:33:15.666Z,36.30
2018-12-17T05:35:44.977Z,36.70
2018-12-17T05:38:13.683Z,34.40
2018-12-17T05:40:42.334Z,35.17
2018-12-17T05:43:11.635Z,34.47
2018-12-17T05:46:45.465Z,37.40
2018-12-17T05:49:36.016Z,35.27
2018-12-17T05:52:12.576Z,35.57
2018-12-17T05:54:42.831Z,37.30
2018-12-17T05:57:11.173Z,35.00
2018-12-17T05:59:40.974Z,35.25
2018-12-17T06:02:10.171Z,34.87
2018-12-17T06:04:45.645Z,33.87
2018-12-17T06:07:16.357Z,33.93
2018-12-17T06:09:44.648Z,36.77
2018-12-17T06:12:38.825Z,35.70
2018-12-17T06:15:13.014Z,32.93
2018-12-17T06:17:41.218Z,32.73
2018-12-17T06:20:12.172Z,33.60
2018-12-17T06:22:41.218Z,37.13
2018-12-17T06:25:10.151Z,36.03
2018-12-17T06:27:38.679Z,34.57
2018-12-17T06:30:10.901Z,33.03
2018-12-17T06:32:39.071Z,45.13
2018-12-17T06:35:10.355Z,32.17
2018-12-17T06:37:44.353Z,31.57
2018-12-17T06:40:18.351Z,35.03
2018-12-17T06:42:47.562Z,32.83
2018-12-17T06:45:17.342Z,37.47
2018-12-17T06:47:49.836Z,40.03
2018-12-17T06:50:18.001Z,34.73
2018-12-17T06:52:46.225Z,35.77
2018-12-17T06:55:18.246Z,34.83
2018-12-17T06:57:48.527Z,35.77
2018-12-17T07:00:16.748Z,35.97
2018-12-17T07:02:45.962Z,35.03
2018-12-17T07:05:14.114Z,36.00
2018-12-17T07:07:43.344Z,34.47
2018-12-17T07:10:15.123Z,35.37
2018-12-17T07:12:43.288Z,40.27
2018-12-17T07:15:13.087Z,34.07
2018-12-17T07:17:44.485Z,39.37
2018-12-17T07:20:12.662Z,38.77
2018-12-17T07:22:42.895Z,37.23
2018-12-17T07:25:11.993Z,38.40
2018-12-17T07:27:40.209Z,39.70
2018-12-17T07:30:10.695Z,41.27
2018-12-17T07:32:39.890Z,45.17
2018-12-17T07:35:12.167Z,41.80
2018-12-17T07:37:40.340Z,48.17
2018-12-17T07:40:09.554Z,43.40
2018-12-17T07:42:38.777Z,40.63
2018-12-17T07:45:13.206Z,39.17
2018-12-17T07:47:43.166Z,43.97
2018-12-17T07:50:12.205Z,38.20
2018-12-17T07:52:40.437Z,41.90
2018-12-17T07:55:12.463Z,40.97
2018-12-17T07:57:42.661Z,40.77
2018-12-17T08:00:20.177Z,44.60
2018-12-17T08:02:48.452Z,36.63
2018-12-17T08:05:16.704Z,35.83
2018-12-17T08:07:44.979Z,36.23
2018-12-17T08:10:14.189Z,36.97
2018-12-17T08:12:44.258Z,38.83
2018-12-17T08:15:13.460Z,36.70
2018-12-17T08:17:42.397Z,31.37
2018-12-17T08:20:11.083Z,32.63
2018-12-17T08:22:40.326Z,34.77
2018-12-17T08:25:12.638Z,33.60
2018-12-17T08:27:40.882Z,32.00
2018-12-17T08:30:09.034Z,30.80
2018-12-17T08:32:37.260Z,29.63
2018-12-17T08:35:05.834Z,28.90
2018-12-17T08:37:34.334Z,31.80
2018-12-17T08:40:02.577Z,34.97
2018-12-17T08:42:32.825Z,32.63
2018-12-17T08:45:01.071Z,30.17
2018-12-17T08:47:37.314Z,29.57
2018-12-17T08:50:06.524Z,32.00
2018-12-17T08:52:34.695Z,29.73
2018-12-17T08:58:27.368Z,32.37
2018-12-17T09:00:55.588Z,31.13
2018-12-17T09:03:23.800Z,28.70
2018-12-17T09:05:51.992Z,28.90
2018-12-17T09:08:25.982Z,29.33
2018-12-17T09:10:59.570Z,26.50
2018-12-17T09:13:33.790Z,29.27
2018-12-17T09:16:11.364Z,29.53
2018-12-17T09:18:43.361Z,26.83
2018-12-17T09:21:14.545Z,26.03
2018-12-17T09:23:42.745Z,25.67
2018-12-17T09:26:11.372Z,27.10
2018-12-17T09:28:39.532Z,25.60
2018-12-17T09:31:07.728Z,25.63
2018-12-17T09:33:35.890Z,27.07
2018-12-17T09:36:04.326Z,24.30
2018-12-17T09:38:32.486Z,24.80
2018-12-17T09:41:00.732Z,23.93
2018-12-17T09:43:29.913Z,24.50
2018-12-17T09:45:58.125Z,24.13
2018-12-17T09:48:35.783Z,23.87
2018-12-17T09:51:03.998Z,23.27
2018-12-17T09:53:33.189Z,23.53
2018-12-17T09:56:01.466Z,20.70
2018-12-17T09:58:31.635Z,21.07
2018-12-17T10:01:00.844Z,23.07
2018-12-17T10:03:30.085Z,23.80
2018-12-17T10:05:58.320Z,23.13
2018-12-17T10:08:26.505Z,22.43
2018-12-17T10:10:55.036Z,22.00
2018-12-17T10:13:29.575Z,23.57
2018-12-17T10:15:57.773Z,22.13
2018-12-17T10:18:28.033Z,22.57
2018-12-17T10:20:59.235Z,21.73
2018-12-17T10:23:29.728Z,23.20
2018-12-17T10:25:57.946Z,24.10
2018-12-17T10:28:27.277Z,22.00
2018-12-17T10:30:57.041Z,21.13
2018-12-17T10:33:29.360Z,21.70
2018-12-17T10:35:57.577Z,20.80
2018-12-17T10:38:28.856Z,21.17
2018-12-17T10:40:56.989Z,20.77
2018-12-17T10:43:26.215Z,21.43
2018-12-17T10:45:55.472Z,20.17
2018-12-17T10:48:25.630Z,19.77
2018-12-17T10:50:55.855Z,21.47
2018-12-17T10:53:26.074Z,20.07
2018-12-17T10:55:55.293Z,19.50
2018-12-17T10:58:24.509Z,18.80
2018-12-17T11:01:10.543Z,18.63
2018-12-17T11:04:02.156Z,19.83
2018-12-17T11:06:31.382Z,18.97
2018-12-17T11:08:59.551Z,19.00
2018-12-17T11:11:27.802Z,19.67
2018-12-17T11:13:57.959Z,17.47
2018-12-17T11:16:30.298Z,18.30
2018-12-17T11:18:58.538Z,18.23
2018-12-17T11:21:27.672Z,17.43
2018-12-17T11:23:55.878Z,16.90
2018-12-17T11:26:24.041Z,16.60
2018-12-17T11:28:53.227Z,16.90
2018-12-17T11:31:22.100Z,17.37
2018-12-17T11:33:50.294Z,17.07
2018-12-17T11:36:18.481Z,15.73
2018-12-17T11:38:50.961Z,16.60
2018-12-17T11:41:19.165Z,16.10
2018-12-17T11:43:48.424Z,14.13
2018-12-17T11:46:16.580Z,14.23
2018-12-17T11:48:45.163Z,15.40
2018-12-17T11:51:15.412Z,13.77
2018-12-17T11:53:43.560Z,13.60
2018-12-17T11:56:12.434Z,14.13
2018-12-17T11:58:40.639Z,13.30
2018-12-17T12:01:10.490Z,12.67
2018-12-17T12:03:43.169Z,13.13
2018-12-17T12:06:14.311Z,12.10
2018-12-17T12:08:39.612Z,13.23
2018-12-17T12:11:08.752Z,12.43
2018-12-17T12:13:38.402Z,13.03
2018-12-17T12:16:06.563Z,12.30
2018-12-17T12:18:35.748Z,12.73
2018-12-17T12:21:44.595Z,12.40
2018-12-17T12:24:24.450Z,12.23
2018-12-17T12:26:52.746Z,12.47
2018-12-17T12:29:20.983Z,12.93
2018-12-17T12:31:50.168Z,11.83
2018-12-17T12:34:18.354Z,11.87
2018-12-17T12:36:47.578Z,11.60
2018-12-17T12:39:15.854Z,11.37
2018-12-17T12:41:45.451Z,11.93
2018-12-17T12:44:14.088Z,11.13
2018-12-17T12:46:43.344Z,11.87
2018-12-17T12:49:12.492Z,10.70
2018-12-17T12:51:40.686Z,10.70
2018-12-17T12:54:13.131Z,10.83
2018-12-17T12:56:56.771Z,10.75
2018-12-17T12:59:30.811Z,10.60
2018-12-17T13:02:05.196Z,10.87
2018-12-17T13:04:34.809Z,10.83
2018-12-17T13:07:04.456Z,9.73
2018-12-17T13:09:32.924Z,10.50
2018-12-17T13:12:01.514Z,8.73
2018-12-17T13:14:30.819Z,9.30
2018-12-17T13:16:58.988Z,10.53
2018-12-17T13:19:28.454Z,11.12
2018-12-17T13:22:03.490Z,10.67
2018-12-17T13:24:34.005Z,10.67
2018-12-17T13:27:02.408Z,9.37
2018-12-17T13:29:30.978Z,9.73
2018-12-17T13:32:00.513Z,9.57
2018-12-17T13:34:34.721Z,9.17
2018-12-17T13:37:04.633Z,10.17
2018-12-17T13:39:33.088Z,9.70
2018-12-17T13:42:01.690Z,10.07
2018-12-17T13:44:30.503Z,214.60
2018-12-17T13:46:58.825Z,258.13
2018-12-17T13:49:28.347Z,189.67
2018-12-17T13:52:16.111Z,124.80
2018-12-17T13:54:44.665Z,11.47
2018-12-17T13:57:12.851Z,9.20
2018-12-17T13:59:42.055Z,9.87
2018-12-17T14:02:23.036Z,8.87
2018-12-17T14:04:51.196Z,9.25
2018-12-17T14:07:22.485Z,11.27
2018-12-17T14:10:07.395Z,9.23
2018-12-17T14:12:35.583Z,9.27
2018-12-17T14:15:04.863Z,10.20
2018-12-17T14:17:38.988Z,10.03
2018-12-17T14:20:26.719Z,8.80
2018-12-17T14:23:01.966Z,9.37
2018-12-17T14:25:30.441Z,9.90
2018-12-17T14:28:04.660Z,9.60
2018-12-17T14:30:32.833Z,9.10
2018-12-17T14:33:01.075Z,9.33
2018-12-17T14:35:33.235Z,10.53
2018-12-17T14:38:04.206Z,9.65
2018-12-17T14:40:33.663Z,9.57
2018-12-17T14:43:01.930Z,8.43
2018-12-17T14:45:31.098Z,10.03
2018-12-17T14:47:59.280Z,10.00
2018-12-17T14:50:27.718Z,9.63
2018-12-17T14:53:02.018Z,9.37
2018-12-17T14:55:30.309Z,9.23
2018-12-17T14:57:59.610Z,9.30
2018-12-17T15:00:28.906Z,9.30
2018-12-17T15:03:03.058Z,9.93
2018-12-17T15:05:37.570Z,10.35
2018-12-17T15:08:05.787Z,9.68
2018-12-17T15:10:39.099Z,10.23
2018-12-17T15:13:13.259Z,9.27
2018-12-17T15:15:41.466Z,9.63
2018-12-17T15:18:09.831Z,9.63
2018-12-17T15:20:40.924Z,10.10
2018-12-17T15:23:10.184Z,10.17
2018-12-17T15:25:38.426Z,10.37
2018-12-17T15:28:12.662Z,9.57
2018-12-17T15:30:42.969Z,10.50
2018-12-17T15:33:14.948Z,9.30
2018-12-17T15:35:45.180Z,10.28
2018-12-17T15:38:14.428Z,10.47
2018-12-17T15:40:42.666Z,10.73
2018-12-17T15:43:11.198Z,11.10
2018-12-17T15:45:47.613Z,10.73
2018-12-17T15:48:55.758Z,10.70
2018-12-17T15:51:24.423Z,11.73
2018-12-17T15:54:28.797Z,11.37
2018-12-17T15:57:19.889Z,11.63
2018-12-17T15:59:54.749Z,10.70
2018-12-17T16:02:46.260Z,11.70
2018-12-17T16:05:37.536Z,11.57
2018-12-17T16:08:05.727Z,16.63
2018-12-17T16:10:58.704Z,13.80
2018-12-17T16:13:27.943Z,12.13
2018-12-17T16:16:02.098Z,11.50
2018-12-17T16:18:34.571Z,10.80
2018-12-17T16:21:03.848Z,10.70
2018-12-17T16:24:01.328Z,10.87
2018-12-17T16:26:46.033Z,11.10
2018-12-17T16:29:15.517Z,12.87
2018-12-17T16:31:45.418Z,12.20
2018-12-17T16:34:16.840Z,11.70
2018-12-17T16:36:47.171Z,12.40
2018-12-17T16:39:18.731Z,11.57
2018-12-17T16:41:47.312Z,11.87
2018-12-17T16:44:15.915Z,12.60
2018-12-17T16:46:46.490Z,12.70
2018-12-17T16:49:18.231Z,13.43
2018-12-17T16:51:46.968Z,11.93
2018-12-17T16:54:16.155Z,11.77
2018-12-17T16:56:46.376Z,11.87
2018-12-17T16:59:16.786Z,11.57
2018-12-17T17:01:47.767Z,14.77
2018-12-17T17:04:28.419Z,11.67
2018-12-17T17:06:57.147Z,12.23
2018-12-17T17:09:25.561Z,11.17
2018-12-17T17:11:54.277Z,10.95
2018-12-17T17:14:35.645Z,11.77
2018-12-17T17:17:12.953Z,12.60
2018-12-17T17:19:41.610Z,11.03
2018-12-17T17:22:10.061Z,12.13
2018-12-17T17:24:41.623Z,11.87
2018-12-17T17:27:09.869Z,13.30
2018-12-17T17:29:42.204Z,12.87
2018-12-17T17:32:12.016Z,11.53
2018-12-17T17:34:58.501Z,11.30
2018-12-17T17:37:26.834Z,10.37
2018-12-17T17:39:55.149Z,11.35
2018-12-17T17:42:23.421Z,14.53
2018-12-17T17:44:51.613Z,16.00
2018-12-17T17:47:19.899Z,13.93
2018-12-17T17:49:58.807Z,22.00
2018-12-17T17:52:26.991Z,12.73
2018-12-17T17:54:55.140Z,12.10
2018-12-17T17:57:23.616Z,10.57
2018-12-17T17:59:51.810Z,10.07
2018-12-17T18:02:20.006Z,10.47
2018-12-17T18:04:48.257Z,10.73
2018-12-17T18:07:17.431Z,11.97
2018-12-17T18:09:46.705Z,9.93
2018-12-17T18:12:14.963Z,9.97
2018-12-17T18:14:43.100Z,12.60
2018-12-17T18:17:11.288Z,10.50
2018-12-17T18:19:46.641Z,10.60
2018-12-17T18:22:14.946Z,11.17
2018-12-17T18:24:56.990Z,12.73
2018-12-17T18:27:40.923Z,14.57
2018-12-17T18:30:35.111Z,12.23
2018-12-17T18:33:21.144Z,12.67
2018-12-17T18:35:49.822Z,11.90
2018-12-17T18:38:18.524Z,12.30
2018-12-17T18:40:46.829Z,13.20
2018-12-17T18:43:15.075Z,13.33
2018-12-17T18:45:44.255Z,15.93
2018-12-17T18:48:12.413Z,14.50
2018-12-17T18:50:40.594Z,15.17
2018-12-17T18:53:08.798Z,14.70
2018-12-17T18:55:37.071Z,15.85
2018-12-17T18:58:05.350Z,15.10
2018-12-17T19:00:33.585Z,17.10
2018-12-17T19:03:01.808Z,19.20
2018-12-17T19:05:30.059Z,17.60
2018-12-17T19:07:59.280Z,16.23
2018-12-17T19:10:47.053Z,17.13
2018-12-17T19:13:17.655Z,18.60
2018-12-17T19:15:47.655Z,16.83
2018-12-17T19:18:26.918Z,16.73
2018-12-17T19:21:22.302Z,14.83
2018-12-17T19:23:50.466Z,15.53
2018-12-17T19:26:31.337Z,15.60
2018-12-17T19:28:59.667Z,16.80
2018-12-17T19:31:34.506Z,18.57
2018-12-17T19:34:02.259Z,17.67
2018-12-17T19:36:32.529Z,16.17
2018-12-17T19:39:21.945Z,17.47
2018-12-17T19:41:52.187Z,16.63
2018-12-17T19:44:21.458Z,18.27
2018-12-17T19:47:39.726Z,16.57
2018-12-17T19:50:31.338Z,18.37
2018-12-17T19:53:20.189Z,19.30
2018-12-17T20:02:22.359Z,17.07
2018-12-17T20:04:50.546Z,16.33
2018-12-17T20:11:02.421Z,17.43
2018-12-17T20:14:02.534Z,16.50
2018-12-17T20:16:32.896Z,23.80
2018-12-17T20:19:08.010Z,19.03
2018-12-17T20:21:39.302Z,17.17
2018-12-17T20:24:19.533Z,16.40
2018-12-17T20:26:56.879Z,15.97
2018-12-17T20:29:34.415Z,15.83
2018-12-17T20:32:03.612Z,14.60
2018-12-17T20:34:33.825Z,16.13
2018-12-17T20:37:05.146Z,15.90
2018-12-17T20:39:36.081Z,15.10
2018-12-17T20:42:12.185Z,14.60
2018-12-17T20:44:46.314Z,14.73
2018-12-17T20:47:16.487Z,15.13
2018-12-17T20:50:02.274Z,14.60
2018-12-17T20:52:32.063Z,14.20
2018-12-17T20:55:00.393Z,15.80
2018-12-17T20:57:42.022Z,18.57
2018-12-17T21:00:19.643Z,14.90
2018-12-17T21:03:00.439Z,17.87
2018-12-17T21:05:27.067Z,16.30
2018-12-17T21:07:56.279Z,15.90
2018-12-17T21:10:25.424Z,16.27
2018-12-17T21:13:01.907Z,15.33
2018-12-17T21:15:41.213Z,14.40
2018-12-17T21:18:11.552Z,14.40
2018-12-17T21:20:49.183Z,16.70
2018-12-17T21:23:17.524Z,16.43
2018-12-17T21:25:47.759Z,15.33
2018-12-17T21:28:17.035Z,15.30
2018-12-17T21:30:47.284Z,15.77
2018-12-17T21:33:16.887Z,17.40
2018-12-17T21:35:45.163Z,16.53
2018-12-17T21:38:14.361Z,15.73
2018-12-17T21:40:49.181Z,15.83
2018-12-17T21:43:19.672Z,16.13
2018-12-17T21:45:48.780Z,15.57
2018-12-17T21:48:18.123Z,16.43
2018-12-17T21:50:46.384Z,18.53
2018-12-17T21:53:14.707Z,17.60
2018-12-17T21:55:43.891Z,18.50
2018-12-17T21:58:15.616Z,19.43
2018-12-17T22:00:43.991Z,19.00
2018-12-17T22:03:13.505Z,19.47
2018-12-17T22:05:50.888Z,18.03
2018-12-17T22:08:30.705Z,20.57
2018-12-17T22:11:09.942Z,20.83
2018-12-17T22:13:42.022Z,22.00
2018-12-17T22:16:14.687Z,19.83
2018-12-17T22:18:54.132Z,19.97
2018-12-17T22:21:39.259Z,22.77
2018-12-17T22:24:15.784Z,23.70
2018-12-17T22:26:44.988Z,22.07
2018-12-17T22:29:13.151Z,22.17
2018-12-17T22:31:41.387Z,25.63
2018-12-17T22:34:11.624Z,22.97
2018-12-17T22:36:48.751Z,22.13
2018-12-17T22:39:19.057Z,18.63
2018-12-17T22:41:53.209Z,18.43
2018-12-17T22:44:21.414Z,18.50
2018-12-17T22:46:51.629Z,17.07
2018-12-17T22:49:21.902Z,17.37
2018-12-17T22:51:51.047Z,17.87
2018-12-17T22:54:22.640Z,19.03
2018-12-17T22:57:01.982Z,20.07
2018-12-17T22:59:30.286Z,18.17
2018-12-17T23:02:01.019Z,18.20
2018-12-17T23:04:29.256Z,22.47
2018-12-17T23:06:59.928Z,19.33
2018-12-17T23:09:27.162Z,17.70
2018-12-17T23:12:39.554Z,19.67
2018-12-17T23:15:44.008Z,20.33
2018-12-17T23:18:12.147Z,19.07
2018-12-17T23:20:42.358Z,19.53
2018-12-17T23:23:11.487Z,19.20
2018-12-17T23:25:39.782Z,18.90
2018-12-17T23:28:10.032Z,19.33
2018-12-17T23:30:38.311Z,18.43
2018-12-17T23:33:11.234Z,18.97
2018-12-17T23:35:40.419Z,18.07
2018-12-17T23:38:19.574Z,17.27
2018-12-17T23:40:48.342Z,17.13
2018-12-17T23:43:17.789Z,17.50
2018-12-17T23:45:50.490Z,17.83
2018-12-17T23:48:20.681Z,19.97
2018-12-17T23:50:50.553Z,20.23
2018-12-17T23:53:23.853Z,18.77
2018-12-17T23:55:56.100Z,17.83
2018-12-17T23:58:26.462Z,17.53
